Time;durP1;ratioP1;P1;durP2;ratioP2;P2;SDS_P1;SDS_P2;PMS_P1;PMS_P2;Temp;Humidity;BMP_temperature;BMP_pressure;BME280_temperature;BME280_humidity;BME280_pressure;Samples;Min_cycle;Max_cycle;Signal;HPM_P1;HPM_P2
2023/01/26 00:02:24;;;;;;;21.80;12.93;;;23.90;35.00;;;;;;5069624;28;20652;-93
2023/01/26 00:04:51;;;;;;;15.47;9.97;;;23.90;34.90;;;;;;5069900;28;20230;-78
2023/01/26 00:07:18;;;;;;;18.63;11.77;;;23.90;35.00;;;;;;5070137;28;20304;-71
2023/01/26 00:09:44;;;;;;;23.30;12.17;;;23.90;35.00;;;;;;5065257;28;20237;-78
2023/01/26 00:12:12;;;;;;;17.80;11.33;;;23.90;35.10;;;;;;5068806;28;20209;-84
2023/01/26 00:14:51;;;;;;;16.03;10.63;;;23.90;35.10;;;;;;5069076;28;20235;-78
2023/01/26 00:17:25;;;;;;;19.00;12.07;;;23.90;35.10;;;;;;5068518;28;20203;-76
2023/01/26 00:19:58;;;;;;;19.73;11.50;;;23.90;35.10;;;;;;5066480;28;20222;-76
2023/01/26 00:22:27;;;;;;;16.03;10.97;;;23.90;35.10;;;;;;5069165;28;20249;-85
2023/01/26 00:24:55;;;;;;;15.77;10.73;;;23.90;35.10;;;;;;5070115;28;20203;-91
2023/01/26 00:27:22;;;;;;;15.13;10.57;;;23.80;35.00;;;;;;5070581;28;20203;-92
2023/01/26 00:29:49;;;;;;;16.47;10.77;;;23.80;35.10;;;;;;5068119;28;20237;-90
2023/01/26 00:32:16;;;;;;;16.53;11.23;;;23.90;35.20;;;;;;5069398;28;20793;-86
2023/01/26 00:34:42;;;;;;;15.70;10.80;;;23.90;35.20;;;;;;5068638;28;20678;-93
2023/01/26 00:37:11;;;;;;;15.33;10.77;;;23.90;35.10;;;;;;5069970;28;20208;-92
2023/01/26 00:39:38;;;;;;;16.30;10.90;;;23.90;35.20;;;;;;5069607;28;20282;-93
2023/01/26 00:42:08;;;;;;;15.97;10.50;;;23.90;35.20;;;;;;5064005;28;20196;-64
2023/01/26 00:44:38;;;;;;;16.70;11.03;;;23.80;35.10;;;;;;5067554;28;20235;-64
2023/01/26 00:47:05;;;;;;;17.80;11.23;;;23.80;35.10;;;;;;5068793;28;20214;-78
2023/01/26 00:49:32;;;;;;;15.57;10.20;;;23.80;35.10;;;;;;5069018;28;20215;-65
2023/01/26 00:51:59;;;;;;;14.63;10.13;;;23.80;35.20;;;;;;5068999;28;20640;-66
2023/01/26 00:54:28;;;;;;;15.60;10.33;;;23.80;35.10;;;;;;5068150;28;20286;-64
2023/01/26 00:56:55;;;;;;;15.63;10.17;;;23.80;35.20;;;;;;5068933;28;20222;-67
2023/01/26 00:59:22;;;;;;;14.73;9.83;;;23.80;35.20;;;;;;5068804;28;20319;-63
2023/01/26 01:01:49;;;;;;;15.47;10.33;;;23.80;35.20;;;;;;5067848;28;20199;-63
2023/01/26 01:04:16;;;;;;;19.10;11.07;;;23.80;35.20;;;;;;5067493;28;20306;-63
2023/01/26 01:06:43;;;;;;;14.77;9.93;;;23.80;35.20;;;;;;5063407;28;20203;-63
2023/01/26 01:09:10;;;;;;;16.90;9.97;;;23.80;35.20;;;;;;5063579;28;20231;-67
2023/01/26 01:11:38;;;;;;;15.00;10.03;;;23.80;35.30;;;;;;5068715;28;20191;-64
2023/01/26 01:14:05;;;;;;;15.43;9.83;;;23.80;35.30;;;;;;5067796;28;20208;-71
2023/01/26 01:16:32;;;;;;;15.37;9.83;;;23.80;35.30;;;;;;5066957;28;20195;-67
2023/01/26 01:18:59;;;;;;;13.97;8.90;;;23.80;35.30;;;;;;5066749;28;20201;-63
2023/01/26 01:21:26;;;;;;;17.50;10.67;;;23.80;35.30;;;;;;5065162;28;20216;-66
2023/01/26 01:23:53;;;;;;;13.93;9.17;;;23.80;35.30;;;;;;5064786;28;20282;-63
2023/01/26 01:26:20;;;;;;;15.37;9.77;;;23.80;35.30;;;;;;5066980;28;20200;-64
2023/01/26 01:28:49;;;;;;;15.53;9.93;;;23.80;35.30;;;;;;5065835;28;20206;-67
2023/01/26 01:31:16;;;;;;;11.87;8.70;;;23.80;35.30;;;;;;5066708;28;20199;-65
2023/01/26 01:33:43;;;;;;;13.80;9.53;;;23.80;35.30;;;;;;5067814;28;20298;-64
2023/01/26 01:36:13;;;;;;;18.27;10.40;;;23.80;35.30;;;;;;5066050;28;20238;-70
2023/01/26 01:38:40;;;;;;;15.43;9.73;;;23.80;35.30;;;;;;5065144;28;20210;-73
2023/01/26 01:41:07;;;;;;;14.50;9.93;;;23.80;35.30;;;;;;5066222;28;20199;-64
2023/01/26 01:43:34;;;;;;;17.70;10.17;;;23.80;35.40;;;;;;5067535;28;20210;-65
2023/01/26 01:46:06;;;;;;;13.13;9.07;;;23.80;35.30;;;;;;5067275;28;20203;-67
2023/01/26 01:48:42;;;;;;;14.33;9.67;;;23.80;35.40;;;;;;5067330;28;20195;-70
2023/01/26 01:51:16;;;;;;;15.37;9.30;;;23.80;35.40;;;;;;5067997;28;20242;-64
2023/01/26 01:53:47;;;;;;;12.27;8.47;;;23.90;35.50;;;;;;5050700;28;20209;-64
2023/01/26 01:56:20;;;;;;;15.27;9.30;;;23.80;35.40;;;;;;5050589;28;20606;-63
2023/01/26 01:58:49;;;;;;;13.67;8.97;;;23.80;35.40;;;;;;5059047;28;20195;-65
2023/01/26 02:01:18;;;;;;;13.27;8.80;;;23.90;35.40;;;;;;5056416;28;20648;-80
2023/01/26 02:03:49;;;;;;;13.37;9.40;;;23.90;35.50;;;;;;5066261;28;20724;-85
2023/01/26 02:06:20;;;;;;;14.07;9.43;;;23.90;35.50;;;;;;5068885;28;20205;-75
2023/01/26 02:08:50;;;;;;;18.03;10.23;;;23.90;35.50;;;;;;5065844;28;20286;-90
2023/01/26 02:11:20;;;;;;;13.63;9.10;;;23.90;35.50;;;;;;5063391;28;20208;-82
2023/01/26 02:13:49;;;;;;;19.80;10.10;;;23.80;35.40;;;;;;5051246;28;20325;-89
2023/01/26 02:16:16;;;;;;;14.43;9.20;;;23.90;35.50;;;;;;5067947;28;20206;-80
2023/01/26 02:18:45;;;;;;;14.63;9.43;;;23.90;35.60;;;;;;5066173;28;20199;-82
2023/01/26 02:21:16;;;;;;;15.07;9.87;;;23.90;35.60;;;;;;5054525;28;20208;-82
2023/01/26 02:24:03;;;;;;;14.80;9.30;;;23.90;35.60;;;;;;5062732;28;20206;-86
2023/01/26 02:26:33;;;;;;;13.00;8.97;;;23.80;35.50;;;;;;5067847;28;20200;-92
2023/01/26 02:29:02;;;;;;;14.03;8.50;;;23.80;35.50;;;;;;5048374;28;20217;-91
2023/01/26 02:31:30;;;;;;;15.13;9.23;;;23.90;36.20;;;;;;5060415;28;20196;-90
2023/01/26 02:33:57;;;;;;;19.20;10.73;;;23.90;35.60;;;;;;5066875;28;20199;-88
2023/01/26 02:36:27;;;;;;;15.03;9.33;;;23.90;35.60;;;;;;5065622;28;20214;-92
2023/01/26 02:39:14;;;;;;;12.43;8.63;;;23.90;35.60;;;;;;5055230;28;20738;-68
2023/01/26 02:44:29;;;;;;;18.63;10.40;;;23.80;35.50;;;;;;5065455;28;20206;-65
2023/01/26 02:46:55;;;;;;;15.37;9.47;;;23.90;35.60;;;;;;5059915;28;20210;-63
2023/01/26 02:52:08;;;;;;;13.13;9.03;;;23.80;35.50;;;;;;5067358;28;20210;-63
2023/01/26 02:57:20;;;;;;;14.87;9.07;;;23.90;35.60;;;;;;5069344;28;20354;-64
2023/01/26 02:59:47;;;;;;;12.67;8.43;;;23.90;35.60;;;;;;5069138;28;20208;-77
2023/01/26 03:02:14;;;;;;;12.33;8.07;;;23.90;35.70;;;;;;5069301;28;20290;-69
2023/01/26 03:04:41;;;;;;;17.57;9.80;;;23.90;35.70;;;;;;5068423;28;20202;-64
2023/01/26 03:07:08;;;;;;;12.97;8.53;;;23.90;35.70;;;;;;5069312;28;20198;-64
2023/01/26 03:09:35;;;;;;;19.23;9.93;;;23.90;36.30;;;;;;5068654;28;20242;-74
2023/01/26 03:12:03;;;;;;;14.57;8.43;;;23.90;35.80;;;;;;5065893;28;20302;-64
2023/01/26 03:14:31;;;;;;;11.13;7.63;;;23.90;35.80;;;;;;5065404;28;20258;-71
2023/01/26 03:16:58;;;;;;;12.60;8.07;;;23.90;35.80;;;;;;5059127;28;20208;-78
2023/01/26 03:27:54;;;;;;;15.97;9.67;;;23.90;35.80;;;;;;5025447;28;20232;-67
2023/01/26 03:30:24;;;;;;;12.93;8.13;;;23.90;36.40;;;;;;5020891;28;20711;-75
2023/01/26 03:32:50;;;;;;;15.13;9.30;;;23.90;35.80;;;;;;5045510;28;20208;-64
2023/01/26 03:35:21;;;;;;;12.17;7.80;;;23.90;35.80;;;;;;5069657;28;20243;-64
2023/01/26 03:37:53;;;;;;;15.43;8.87;;;23.90;35.80;;;;;;5062575;28;20195;-65
2023/01/26 03:56:51;;;;;;;13.33;8.93;;;23.90;35.80;;;;;;5069975;28;20270;-63
2023/01/26 03:59:36;;;;;;;18.37;9.73;;;24.00;35.80;;;;;;5069262;28;20297;-77
2023/01/26 04:10:20;;;;;;;11.83;7.63;;;24.00;35.80;;;;;;5062380;28;20246;-79
2023/01/26 04:23:48;;;;;;;11.00;7.57;;;24.00;36.00;;;;;;5068999;28;20202;-84
2023/01/26 04:26:16;;;;;;;11.03;7.50;;;23.90;35.90;;;;;;5065779;28;20294;-82
2023/01/26 04:28:44;;;;;;;8.80;6.83;;;23.90;36.00;;;;;;5063110;28;20195;-87
2023/01/26 04:31:11;;;;;;;11.67;8.17;;;23.90;36.00;;;;;;5061194;28;20237;-92
2023/01/26 04:33:39;;;;;;;12.90;7.73;;;23.90;36.00;;;;;;5063989;28;20282;-75
2023/01/26 04:36:08;;;;;;;13.17;8.00;;;24.00;36.10;;;;;;5068548;28;20200;-72
2023/01/26 04:38:35;;;;;;;11.67;7.57;;;24.00;36.10;;;;;;5067090;28;20213;-80
2023/01/26 04:41:02;;;;;;;14.93;8.77;;;24.00;36.00;;;;;;5061905;28;20203;-81
2023/01/26 04:43:29;;;;;;;13.20;8.07;;;24.00;36.10;;;;;;5062796;28;20240;-69
2023/01/26 04:46:00;;;;;;;11.50;7.73;;;24.00;36.10;;;;;;5049325;28;20195;-65
2023/01/26 04:48:27;;;;;;;11.90;7.70;;;24.00;36.10;;;;;;5048914;28;20204;-66
2023/01/26 04:50:56;;;;;;;10.80;7.17;;;24.00;36.10;;;;;;5060551;28;20226;-72
2023/01/26 04:53:24;;;;;;;10.37;6.97;;;24.00;36.10;;;;;;5068207;28;20918;-66
2023/01/26 04:55:51;;;;;;;12.30;7.37;;;24.00;36.10;;;;;;5068565;28;20670;-67
2023/01/26 04:58:18;;;;;;;11.30;7.20;;;24.00;36.10;;;;;;5069161;28;20202;-87
2023/01/26 05:00:50;;;;;;;11.27;7.43;;;24.00;36.20;;;;;;5067500;28;20202;-84
2023/01/26 05:03:17;;;;;;;12.27;7.47;;;24.00;36.20;;;;;;5068520;28;20686;-76
2023/01/26 05:05:44;;;;;;;9.53;6.80;;;24.00;36.20;;;;;;5068146;28;20221;-67
2023/01/26 05:08:12;;;;;;;15.13;8.17;;;23.90;36.10;;;;;;5067940;28;20292;-79
2023/01/26 05:10:39;;;;;;;12.60;7.37;;;23.90;36.20;;;;;;5066788;28;20237;-78
2023/01/26 05:13:08;;;;;;;12.40;6.87;;;24.00;36.30;;;;;;5061735;28;20195;-67
2023/01/26 05:15:35;;;;;;;14.90;7.67;;;24.00;36.30;;;;;;5062584;28;20209;-73
2023/01/26 05:18:03;;;;;;;9.63;6.17;;;24.00;37.00;;;;;;5068540;28;20199;-69
2023/01/26 05:20:31;;;;;;;11.17;6.30;;;23.90;36.20;;;;;;5066486;28;20218;-78
2023/01/26 05:22:58;;;;;;;13.33;7.60;;;24.00;36.30;;;;;;5061786;28;20786;-77
2023/01/26 05:25:26;;;;;;;10.37;6.43;;;24.00;36.40;;;;;;5065482;28;20944;-76
2023/01/26 05:27:53;;;;;;;20.93;6.77;;;24.00;36.40;;;;;;5068092;28;20203;-68
2023/01/26 05:30:20;;;;;;;14.87;7.87;;;24.00;36.40;;;;;;5065537;28;20805;-67
2023/01/26 05:32:47;;;;;;;9.37;5.57;;;24.00;36.40;;;;;;5067679;28;20209;-67
2023/01/26 05:35:15;;;;;;;9.07;6.00;;;24.00;36.40;;;;;;5068275;28;20284;-81
2023/01/26 05:37:44;;;;;;;8.33;5.80;;;24.00;36.40;;;;;;5068463;28;20298;-75
2023/01/26 05:40:12;;;;;;;11.33;6.27;;;24.00;36.50;;;;;;5067600;28;20235;-72
2023/01/26 05:42:42;;;;;;;9.67;5.80;;;24.00;37.10;;;;;;5068025;28;20199;-66
2023/01/26 05:45:10;;;;;;;14.33;7.03;;;24.00;36.50;;;;;;5065362;28;20217;-67
2023/01/26 05:47:37;;;;;;;9.57;5.93;;;24.00;36.50;;;;;;5065132;28;20229;-66
2023/01/26 05:50:04;;;;;;;8.70;5.40;;;24.00;36.50;;;;;;5067329;28;20209;-66
2023/01/26 05:52:31;;;;;;;12.50;6.53;;;24.00;36.60;;;;;;5065312;28;20859;-66
2023/01/26 05:54:58;;;;;;;9.73;5.67;;;24.00;36.50;;;;;;5065963;28;20209;-66
2023/01/26 05:57:25;;;;;;;11.40;6.07;;;24.00;36.60;;;;;;5064520;28;20227;-69
2023/01/26 05:59:53;;;;;;;9.03;5.53;;;24.00;36.60;;;;;;5067765;28;20317;-79
2023/01/26 06:02:20;;;;;;;10.33;5.97;;;24.00;36.60;;;;;;5065488;28;20216;-88
2023/01/26 06:04:47;;;;;;;12.53;5.97;;;24.10;37.30;;;;;;5065122;28;20228;-92
2023/01/26 06:07:15;;;;;;;10.30;5.30;;;24.10;36.60;;;;;;5062357;28;20214;-78
2023/01/26 06:09:44;;;;;;;9.87;5.20;;;24.10;36.70;;;;;;5065689;28;20203;-86
2023/01/26 06:12:15;;;;;;;10.97;6.07;;;24.00;36.60;;;;;;5067423;28;20233;-68
2023/01/26 06:14:42;;;;;;;10.40;5.90;;;24.00;36.70;;;;;;5067140;28;20203;-84
2023/01/26 06:17:11;;;;;;;7.77;4.70;;;24.10;36.70;;;;;;5067178;28;20204;-90
2023/01/26 06:19:38;;;;;;;9.17;5.13;;;24.10;36.80;;;;;;5057304;28;20569;-81
2023/01/26 06:22:07;;;;;;;10.83;5.50;;;24.10;36.70;;;;;;5067908;28;20286;-80
2023/01/26 06:24:34;;;;;;;8.73;4.93;;;24.10;36.80;;;;;;5056151;28;20747;-86
2023/01/26 06:27:02;;;;;;;8.17;4.70;;;24.10;36.80;;;;;;5067089;28;20205;-92
2023/01/26 06:29:29;;;;;;;8.77;4.33;;;24.10;36.80;;;;;;5071344;28;20206;-73
2023/01/26 06:31:56;;;;;;;10.83;5.40;;;24.10;36.80;;;;;;5051957;28;20231;-72
2023/01/26 06:34:24;;;;;;;9.07;4.73;;;24.10;36.80;;;;;;5067547;28;20926;-71
2023/01/26 06:36:52;;;;;;;8.13;4.50;;;24.10;36.90;;;;;;5072081;28;20196;-76
2023/01/26 06:39:18;;;;;;;11.33;5.50;;;24.10;36.90;;;;;;5068909;28;20575;-66
2023/01/26 06:41:45;;;;;;;11.20;5.23;;;24.10;36.90;;;;;;5069204;28;20199;-66
2023/01/26 06:44:12;;;;;;;9.37;4.90;;;24.10;36.90;;;;;;5057680;28;20208;-65
2023/01/26 06:46:39;;;;;;;10.30;4.77;;;24.10;36.90;;;;;;5055581;28;20243;-66
2023/01/26 06:49:06;;;;;;;9.50;4.30;;;24.10;36.90;;;;;;5071318;28;20249;-69
2023/01/26 06:51:57;;;;;;;8.40;4.27;;;24.10;37.00;;;;;;5070529;28;20713;-65
2023/01/26 06:54:24;;;;;;;8.27;4.33;;;24.10;37.10;;;;;;5069912;28;20199;-73
2023/01/26 06:56:50;;;;;;;10.53;4.87;;;24.20;37.00;;;;;;5071295;28;20563;-73
2023/01/26 06:59:17;;;;;;;8.80;4.33;;;24.10;37.00;;;;;;5068955;28;20226;-80
2023/01/26 07:01:49;;;;;;;9.93;4.80;;;24.20;37.00;;;;;;5068210;28;20306;-71
2023/01/26 07:04:17;;;;;;;16.77;6.10;;;24.20;37.10;;;;;;5069688;28;20200;-76
2023/01/26 07:06:44;;;;;;;18.43;5.83;;;24.20;37.20;;;;;;5067337;28;20803;-78
2023/01/26 07:09:12;;;;;;;15.23;5.93;;;24.20;37.20;;;;;;5070125;28;20214;-72
2023/01/26 07:11:39;;;;;;;20.67;5.00;;;24.20;37.20;;;;;;5067949;28;20226;-78
2023/01/26 07:14:06;;;;;;;10.17;4.80;;;24.20;37.20;;;;;;5070735;28;20204;-81
2023/01/26 07:16:33;;;;;;;8.97;4.63;;;24.20;37.20;;;;;;5068302;28;20200;-85
2023/01/26 07:19:00;;;;;;;9.63;4.63;;;24.20;37.20;;;;;;5070393;28;20209;-81
2023/01/26 07:21:27;;;;;;;9.90;4.73;;;24.20;37.20;;;;;;5070635;28;20230;-88
2023/01/26 07:23:55;;;;;;;13.30;5.10;;;24.20;37.20;;;;;;5070807;28;20191;-80
2023/01/26 07:26:23;;;;;;;12.43;5.10;;;24.20;37.20;;;;;;5068542;28;20215;-86
2023/01/26 07:28:50;;;;;;;10.47;5.03;;;24.20;37.20;;;;;;5070446;28;20217;-71
2023/01/26 07:31:17;;;;;;;10.03;4.63;;;24.10;37.20;;;;;;5070504;28;20694;-88
2023/01/26 07:33:44;;;;;;;11.63;4.87;;;24.10;37.10;;;;;;5070238;28;20207;-84
2023/01/26 07:36:11;;;;;;;10.50;4.40;;;24.10;37.20;;;;;;5069546;28;20203;-88
2023/01/26 07:38:38;;;;;;;12.10;4.87;;;24.10;37.20;;;;;;5069097;28;20187;-88
2023/01/26 07:41:08;;;;;;;10.47;4.67;;;24.10;37.20;;;;;;5070244;28;20207;-84
2023/01/26 07:43:37;;;;;;;10.40;4.57;;;24.10;37.30;;;;;;5069347;28;20229;-88
2023/01/26 07:46:05;;;;;;;7.90;4.07;;;24.00;37.30;;;;;;5070241;28;20203;-84
2023/01/26 07:48:33;;;;;;;10.30;4.13;;;24.00;37.30;;;;;;5069686;28;20196;-85
2023/01/26 07:51:02;;;;;;;11.27;4.67;;;24.00;37.30;;;;;;5070122;28;20237;-65
2023/01/26 07:53:32;;;;;;;10.70;4.77;;;24.00;37.30;;;;;;5059666;28;20196;-65
2023/01/26 07:56:11;;;;;;;13.23;5.27;;;23.90;37.30;;;;;;5053500;28;20278;-88
2023/01/26 07:58:39;;;;;;;10.10;4.23;;;23.90;37.30;;;;;;5063488;28;20729;-84
2023/01/26 08:01:11;;;;;;;11.50;4.97;;;23.80;37.30;;;;;;5069861;28;20226;-80
2023/01/26 08:03:38;;;;;;;10.60;4.57;;;23.80;37.30;;;;;;5070202;28;20229;-83
2023/01/26 08:06:06;;;;;;;10.60;4.70;;;23.80;37.30;;;;;;5069991;28;20201;-79
2023/01/26 08:08:33;;;;;;;9.43;4.00;;;23.80;37.30;;;;;;5068836;28;20203;-80
2023/01/26 08:11:01;;;;;;;10.60;4.90;;;23.80;37.30;;;;;;5069546;28;20211;-89
2023/01/26 08:13:29;;;;;;;10.27;4.50;;;23.80;37.40;;;;;;5069735;28;20217;-80
2023/01/26 08:16:02;;;;;;;8.73;4.17;;;23.70;37.40;;;;;;5069617;28;20188;-87
2023/01/26 08:18:29;;;;;;;11.07;4.70;;;23.70;37.50;;;;;;5061949;28;20196;-89
2023/01/26 08:20:57;;;;;;;8.87;4.10;;;23.60;37.40;;;;;;5049592;28;20219;-84
2023/01/26 08:23:24;;;;;;;9.40;4.57;;;23.60;37.40;;;;;;5050206;28;20203;-89
2023/01/26 08:25:50;;;;;;;9.90;3.93;;;23.60;37.40;;;;;;5049739;28;20204;-73
2023/01/26 08:28:17;;;;;;;9.10;4.27;;;23.60;37.50;;;;;;5053516;28;20217;-66
2023/01/26 08:30:44;;;;;;;12.17;4.23;;;23.60;37.50;;;;;;5069115;28;20196;-64
2023/01/26 08:33:13;;;;;;;10.30;4.23;;;23.60;37.60;;;;;;5069197;28;20703;-65
2023/01/26 08:35:40;;;;;;;12.53;4.87;;;23.50;37.50;;;;;;5063342;28;20621;-65
2023/01/26 08:38:06;;;;;;;8.27;4.00;;;23.50;37.50;;;;;;5049083;28;20231;-65
2023/01/26 08:40:33;;;;;;;8.47;3.67;;;23.50;37.60;;;;;;5049033;28;20578;-65
2023/01/26 08:43:02;;;;;;;10.80;4.23;;;23.50;37.60;;;;;;5049525;28;20287;-80
2023/01/26 08:45:29;;;;;;;8.63;3.87;;;23.50;37.60;;;;;;5059392;28;20199;-72
2023/01/26 08:47:56;;;;;;;9.83;4.00;;;23.40;37.60;;;;;;5069177;28;20199;-74
2023/01/26 08:50:25;;;;;;;11.63;4.30;;;23.40;37.70;;;;;;5063077;28;20200;-77
2023/01/26 08:52:54;;;;;;;10.50;4.23;;;23.40;37.70;;;;;;5049899;28;20228;-69
2023/01/26 08:55:21;;;;;;;9.03;3.73;;;23.40;37.80;;;;;;5055706;28;20192;-70
2023/01/26 08:57:53;;;;;;;11.20;4.47;;;23.40;37.80;;;;;;5069163;28;20192;-65
2023/01/26 09:00:21;;;;;;;10.67;4.20;;;23.40;37.80;;;;;;5068682;28;20302;-70
2023/01/26 09:02:49;;;;;;;9.63;3.80;;;23.40;37.80;;;;;;5067882;28;20270;-65
2023/01/26 09:05:16;;;;;;;10.43;4.17;;;23.30;37.70;;;;;;5068569;28;20286;-69
2023/01/26 09:07:44;;;;;;;10.40;4.03;;;23.30;37.70;;;;;;5066136;28;20200;-66
2023/01/26 09:10:11;;;;;;;10.07;4.27;;;23.30;37.70;;;;;;5068604;28;20207;-65
2023/01/26 09:12:38;;;;;;;13.77;5.37;;;23.30;37.70;;;;;;5066907;28;20219;-65
2023/01/26 09:15:07;;;;;;;11.00;4.53;;;23.30;37.70;;;;;;5062899;28;20283;-65
2023/01/26 09:17:34;;;;;;;9.77;3.80;;;23.30;37.70;;;;;;5057771;28;20200;-65
2023/01/26 09:20:01;;;;;;;8.00;3.87;;;23.30;37.70;;;;;;5048513;28;20751;-73
2023/01/26 09:22:28;;;;;;;10.93;4.43;;;23.30;37.70;;;;;;5062994;28;20202;-65
2023/01/26 09:24:56;;;;;;;9.13;3.77;;;23.30;37.80;;;;;;5068688;28;20187;-70
2023/01/26 09:27:23;;;;;;;22.53;7.20;;;23.30;37.80;;;;;;5066603;28;20213;-65
2023/01/26 09:29:51;;;;;;;12.43;4.83;;;23.30;37.90;;;;;;5066232;28;20208;-65
2023/01/26 09:32:18;;;;;;;12.03;4.40;;;23.20;37.80;;;;;;5066965;28;20571;-67
2023/01/26 09:34:45;;;;;;;8.30;3.63;;;23.30;37.90;;;;;;5063559;28;20217;-68
2023/01/26 09:37:12;;;;;;;12.17;4.50;;;23.30;38.00;;;;;;5067687;28;20567;-68
2023/01/26 09:39:39;;;;;;;8.33;3.50;;;23.30;38.20;;;;;;5068380;28;20194;-67
2023/01/26 09:42:25;;;;;;;11.93;5.27;;;23.30;38.10;;;;;;5067926;28;21062;-66
2023/01/26 09:45:02;;;;;;;11.93;4.20;;;23.30;38.50;;;;;;5067085;28;20561;-78
2023/01/26 09:47:36;;;;;;;14.13;6.13;;;23.40;38.50;;;;;;5066883;28;20290;-78
2023/01/26 09:50:11;;;;;;;13.77;6.63;;;23.50;38.70;;;;;;5068007;28;20222;-73
2023/01/26 09:52:46;;;;;;;10.93;5.50;;;23.50;38.70;;;;;;5068196;28;20234;-68
2023/01/26 09:55:17;;;;;;;16.53;6.70;;;23.50;38.60;;;;;;5063001;28;20202;-81
2023/01/26 09:57:50;;;;;;;14.40;5.67;;;23.60;38.70;;;;;;5066175;28;20218;-77
2023/01/26 10:00:22;;;;;;;9.10;4.70;;;23.70;38.70;;;;;;5061981;28;20199;-80
2023/01/26 10:03:04;;;;;;;12.10;4.57;;;23.80;38.70;;;;;;5066373;28;20610;-78
2023/01/26 10:05:40;;;;;;;10.03;4.20;;;23.80;38.70;;;;;;5066966;28;20195;-83
2023/01/26 10:08:11;;;;;;;9.77;3.80;;;23.90;38.60;;;;;;5067600;28;20268;-82
2023/01/26 10:10:42;;;;;;;9.27;4.53;;;24.00;38.60;;;;;;5067708;28;20207;-86
2023/01/26 10:13:14;;;;;;;9.33;3.93;;;24.10;38.60;;;;;;5067475;28;20245;-84
2023/01/26 10:15:43;;;;;;;18.17;6.60;;;24.20;38.60;;;;;;5065938;28;20208;-87
2023/01/26 10:18:19;;;;;;;11.47;5.00;;;24.30;38.80;;;;;;5067585;28;20190;-84
2023/01/26 10:20:50;;;;;;;9.33;4.17;;;24.40;38.90;;;;;;5067844;28;20211;-79
2023/01/26 10:23:21;;;;;;;10.70;4.53;;;24.60;39.20;;;;;;5066756;28;20237;-73
2023/01/26 10:25:50;;;;;;;15.20;5.80;;;24.80;39.30;;;;;;5067239;28;20674;-79
2023/01/26 10:28:24;;;;;;;9.47;4.37;;;25.00;39.30;;;;;;5066129;28;20203;-75
2023/01/26 10:30:52;;;;;;;10.80;4.27;;;25.30;39.20;;;;;;5067712;28;20202;-76
2023/01/26 10:33:24;;;;;;;10.43;4.53;;;25.50;39.10;;;;;;5065773;28;20229;-86
2023/01/26 10:35:51;;;;;;;13.23;5.43;;;25.80;39.00;;;;;;5066164;28;20195;-80
2023/01/26 10:38:43;;;;;;;10.37;4.30;;;26.20;39.00;;;;;;5067566;28;20279;-84
2023/01/26 10:41:25;;;;;;;11.33;4.90;;;26.40;38.30;;;;;;5057003;28;20298;-85
2023/01/26 10:43:55;;;;;;;11.63;4.77;;;26.70;38.20;;;;;;5054289;28;20235;-84
2023/01/26 10:46:31;;;;;;;15.30;6.27;;;27.00;38.10;;;;;;5049303;28;20297;-68
2023/01/26 10:49:00;;;;;;;10.97;4.90;;;27.10;37.70;;;;;;5067558;28;20286;-73
2023/01/26 10:51:30;;;;;;;10.63;4.73;;;27.30;37.60;;;;;;5067768;28;20210;-68
2023/01/26 10:54:21;;;;;;;10.90;4.93;;;27.50;37.30;;;;;;5066642;28;20728;-71
2023/01/26 10:56:51;;;;;;;10.00;4.63;;;27.60;36.90;;;;;;5067837;28;20199;-79
2023/01/26 10:59:27;;;;;;;12.73;4.77;;;27.70;36.90;;;;;;5067964;28;20202;-81
2023/01/26 11:02:00;;;;;;;9.30;4.97;;;27.80;36.60;;;;;;5056530;28;20328;-84
2023/01/26 11:04:28;;;;;;;10.13;5.00;;;27.90;36.60;;;;;;5047618;28;20663;-68
2023/01/26 11:06:55;;;;;;;14.17;5.47;;;27.90;36.40;;;;;;5047411;28;20601;-74
2023/01/26 11:09:26;;;;;;;13.80;5.50;;;27.90;36.30;;;;;;5047365;28;20258;-68
2023/01/26 11:12:01;;;;;;;10.23;4.73;;;27.90;36.10;;;;;;5056642;28;20221;-71
2023/01/26 11:14:31;;;;;;;10.40;4.43;;;28.00;36.10;;;;;;5070519;28;20210;-71
2023/01/26 11:17:10;;;;;;;10.03;4.40;;;28.00;36.30;;;;;;5070671;28;20207;-68
2023/01/26 11:20:02;;;;;;;10.00;3.93;;;28.00;36.40;;;;;;5070644;28;20207;-67
2023/01/26 11:22:37;;;;;;;7.90;3.87;;;28.00;35.80;;;;;;5065976;28;20207;-70
2023/01/26 11:25:16;;;;;;;14.83;6.10;;;27.90;35.70;;;;;;5068872;28;20207;-68
2023/01/26 11:27:51;;;;;;;8.27;3.77;;;27.90;35.70;;;;;;5059759;28;20199;-70
2023/01/26 11:30:41;;;;;;;12.30;5.33;;;27.80;35.70;;;;;;5068394;28;20290;-68
2023/01/26 11:33:17;;;;;;;14.33;5.77;;;27.70;36.30;;;;;;5063521;28;20234;-72
2023/01/26 11:35:53;;;;;;;17.17;6.63;;;27.60;37.00;;;;;;5069414;28;20880;-82
2023/01/26 11:38:31;;;;;;;15.87;6.20;;;27.50;37.50;;;;;;5070219;28;20199;-84
2023/01/26 11:41:18;;;;;;;17.43;6.63;;;27.50;38.20;;;;;;5067247;28;20200;-81
2023/01/26 11:44:09;;;;;;;9.90;4.90;;;27.40;38.50;;;;;;5068159;28;20219;-79
2023/01/26 11:46:59;;;;;;;13.70;5.23;;;27.30;39.00;;;;;;5070333;28;20207;-67
2023/01/26 11:49:40;;;;;;;12.33;5.00;;;27.20;39.10;;;;;;5070101;28;20200;-84
2023/01/26 11:52:13;;;;;;;11.47;5.03;;;27.10;39.00;;;;;;5069234;28;20223;-87
2023/01/26 11:54:57;;;;;;;14.03;5.50;;;27.00;39.10;;;;;;5070191;28;20192;-85
2023/01/26 11:57:32;;;;;;;9.47;4.40;;;27.00;38.80;;;;;;5070369;28;20199;-86
2023/01/26 12:00:02;;;;;;;8.80;4.20;;;26.90;38.50;;;;;;5070007;28;20203;-86
2023/01/26 12:02:33;;;;;;;10.00;4.43;;;26.80;38.30;;;;;;5068110;28;20232;-82
2023/01/26 12:05:04;;;;;;;9.67;3.80;;;26.80;38.70;;;;;;5070193;28;20319;-85
2023/01/26 12:07:50;;;;;;;9.20;4.23;;;26.80;38.00;;;;;;5068066;28;20203;-82
2023/01/26 12:10:18;;;;;;;10.50;4.50;;;26.70;37.90;;;;;;5069002;28;20210;-86
2023/01/26 12:12:53;;;;;;;8.63;3.90;;;26.70;37.80;;;;;;5069846;28;20602;-79
2023/01/26 12:15:26;;;;;;;9.83;4.33;;;26.60;37.80;;;;;;5069970;28;20213;-85
2023/01/26 12:17:59;;;;;;;8.63;3.67;;;26.60;37.90;;;;;;5069130;28;20196;-83
2023/01/26 12:20:36;;;;;;;13.60;5.07;;;26.50;37.80;;;;;;5067758;28;20213;-81
2023/01/26 12:23:06;;;;;;;7.27;3.60;;;26.50;37.80;;;;;;5068861;28;20201;-87
2023/01/26 12:25:35;;;;;;;19.83;7.37;;;26.50;37.70;;;;;;5067299;28;20206;-75
2023/01/26 12:28:14;;;;;;;7.93;3.57;;;26.40;37.70;;;;;;5060190;28;20196;-73
2023/01/26 12:30:49;;;;;;;17.07;6.53;;;26.50;37.80;;;;;;5061835;28;20583;-80
2023/01/26 12:33:18;;;;;;;7.57;3.43;;;26.40;37.80;;;;;;5065478;28;20229;-91
2023/01/26 12:36:08;;;;;;;8.53;3.90;;;26.50;37.90;;;;;;5069539;28;20667;-83
2023/01/26 12:38:46;;;;;;;10.10;4.33;;;26.40;37.90;;;;;;5067511;28;20648;-66
2023/01/26 12:41:21;;;;;;;10.07;4.03;;;26.50;37.90;;;;;;5057854;28;20214;-89
2023/01/26 12:43:58;;;;;;;9.73;4.37;;;26.50;38.40;;;;;;5084748;28;20191;-76
2023/01/26 12:46:27;;;;;;;14.10;5.73;;;26.50;37.80;;;;;;5049510;28;20196;-71
2023/01/26 12:49:00;;;;;;;8.53;3.70;;;26.50;37.80;;;;;;5065268;28;20588;-65
2023/01/26 12:51:33;;;;;;;8.10;3.80;;;26.50;38.40;;;;;;5062596;28;20656;-85
2023/01/26 12:54:06;;;;;;;9.30;4.10;;;26.50;37.70;;;;;;5066726;28;20227;-90
2023/01/26 12:56:36;;;;;;;9.60;4.07;;;26.50;37.60;;;;;;5067207;28;20190;-88
2023/01/26 12:59:09;;;;;;;10.60;3.93;;;26.50;37.60;;;;;;5069082;28;20271;-91
2023/01/26 13:01:41;;;;;;;10.17;3.80;;;26.40;37.50;;;;;;5068910;28;20250;-87
2023/01/26 13:04:12;;;;;;;9.27;4.10;;;26.40;37.60;;;;;;5067223;28;20286;-71
2023/01/26 13:06:39;;;;;;;10.80;4.53;;;26.40;37.80;;;;;;5065692;28;20736;-80
2023/01/26 13:09:20;;;;;;;8.17;3.63;;;26.40;37.70;;;;;;5065577;28;20659;-72
2023/01/26 13:11:51;;;;;;;15.90;6.03;;;26.40;37.80;;;;;;5072135;28;20196;-66
2023/01/26 13:14:56;;;;;;;10.03;3.97;;;26.30;37.70;;;;;;5068178;28;20211;-92
2023/01/26 13:17:49;;;;;;;7.53;3.17;;;26.30;37.70;;;;;;5067155;28;20202;-92
2023/01/26 13:20:48;;;;;;;13.93;4.90;;;26.30;37.70;;;;;;5064830;28;20208;-82
2023/01/26 13:23:51;;;;;;;8.27;3.63;;;26.20;37.60;;;;;;5067401;28;20199;-89
2023/01/26 13:26:41;;;;;;;8.30;3.77;;;26.20;37.60;;;;;;5068763;28;20679;-85
2023/01/26 13:29:52;;;;;;;9.10;3.43;;;26.20;37.70;;;;;;5068510;28;20199;-85
2023/01/26 13:32:56;;;;;;;9.13;4.10;;;26.20;37.90;;;;;;5029928;28;20205;-78
2023/01/26 13:35:26;;;;;;;7.37;3.17;;;26.20;37.90;;;;;;5025217;28;20283;-79
2023/01/26 13:37:59;;;;;;;9.33;3.77;;;26.20;38.00;;;;;;5059036;28;20203;-70
2023/01/26 13:40:31;;;;;;;9.77;3.87;;;26.10;38.60;;;;;;5063993;28;20196;-68
2023/01/26 13:43:07;;;;;;;9.37;3.87;;;26.20;38.00;;;;;;5068442;28;20199;-83
2023/01/26 13:45:38;;;;;;;12.40;5.17;;;26.20;38.00;;;;;;5064390;28;20195;-84
2023/01/26 13:48:14;;;;;;;9.97;3.73;;;26.20;38.00;;;;;;5068012;28;20203;-74
2023/01/26 13:50:41;;;;;;;7.70;3.67;;;26.10;37.90;;;;;;5068582;28;20190;-84